Aviation Digital Data Service (ADDS)

Output produced by METARs form (0331 UTC 30 May 2017)
found at http://www.aviationweather.gov/adds/metars/
 
KESN 300322Z AUTO 14007KT 10SM OVC008 17/14 A3010 RMK AO2 T01650141